createdAt,value
2018-11-25T00:01:46.085Z,5.90
2018-11-25T00:04:14.188Z,6.00
2018-11-25T00:06:42.674Z,6.00
2018-11-25T00:09:10.558Z,6.30
2018-11-25T00:11:38.556Z,5.47
2018-11-25T00:14:06.600Z,6.13
2018-11-25T00:16:34.732Z,6.10
2018-11-25T00:19:02.875Z,6.17
2018-11-25T00:21:30.887Z,5.90
2018-11-25T00:23:59.251Z,6.30
2018-11-25T00:26:27.534Z,5.93
2018-11-25T00:28:56.009Z,6.33
2018-11-25T00:31:24.804Z,5.73
2018-11-25T00:33:53.183Z,6.23
2018-11-25T00:36:21.672Z,5.87
2018-11-25T00:38:50.343Z,5.70
2018-11-25T00:41:18.841Z,6.10
2018-11-25T00:43:47.283Z,5.53
2018-11-25T00:46:15.749Z,5.83
2018-11-25T00:48:44.809Z,6.13
2018-11-25T00:51:13.270Z,6.13
2018-11-25T00:53:41.371Z,6.60
2018-11-25T00:56:09.495Z,6.37
2018-11-25T00:58:37.868Z,5.87
2018-11-25T01:01:06.059Z,6.40
2018-11-25T01:03:34.752Z,6.13
2018-11-25T01:06:03.178Z,5.87
2018-11-25T01:08:31.792Z,6.53
2018-11-25T01:11:00.853Z,5.90
2018-11-25T01:13:29.480Z,6.17
2018-11-25T01:15:58.399Z,6.63
2018-11-25T01:18:26.954Z,6.83
2018-11-25T01:20:55.050Z,7.00
2018-11-25T01:23:23.660Z,6.87
2018-11-25T01:25:51.965Z,7.37
2018-11-25T01:28:20.471Z,7.90
2018-11-25T01:30:48.689Z,7.90
2018-11-25T01:33:16.948Z,8.07
2018-11-25T01:35:45.447Z,8.10
2018-11-25T01:38:13.664Z,8.10
2018-11-25T01:40:41.894Z,8.03
2018-11-25T01:43:10.412Z,8.47
2018-11-25T01:45:38.692Z,9.37
2018-11-25T01:48:07.070Z,9.63
2018-11-25T01:50:35.437Z,10.27
2018-11-25T01:53:03.712Z,10.07
2018-11-25T01:55:38.322Z,9.63
2018-11-25T01:58:06.644Z,10.27
2018-11-25T02:00:34.762Z,9.77
2018-11-25T02:03:02.897Z,9.60
2018-11-25T02:05:31.614Z,9.20
2018-11-25T02:07:59.996Z,9.13
2018-11-25T02:16:02.185Z,10.03
2018-11-25T02:18:30.683Z,10.47
2018-11-25T02:20:58.901Z,10.63
2018-11-25T02:23:27.337Z,10.53
2018-11-25T02:25:56.094Z,11.10
2018-11-25T02:28:24.495Z,10.70
2018-11-25T02:30:52.765Z,10.90
2018-11-25T02:33:20.923Z,11.23
2018-11-25T02:35:49.299Z,10.33
2018-11-25T02:38:17.671Z,11.53
2018-11-25T02:40:46.082Z,11.90
2018-11-25T02:43:14.217Z,11.73
2018-11-25T02:45:42.521Z,11.83
2018-11-25T02:48:15.122Z,11.73
2018-11-25T02:50:43.370Z,11.50
2018-11-25T02:53:11.650Z,11.77
2018-11-25T02:55:39.649Z,11.20
2018-11-25T02:58:07.618Z,11.80
2018-11-25T03:00:35.854Z,11.60
2018-11-25T03:03:03.834Z,11.20
2018-11-25T03:05:31.811Z,11.00
2018-11-25T03:07:59.857Z,11.33
2018-11-25T03:10:27.829Z,10.80
2018-11-25T03:12:56.019Z,10.23
2018-11-25T03:15:23.997Z,10.93
2018-11-25T03:17:51.999Z,10.90
2018-11-25T03:20:20.020Z,11.03
2018-11-25T03:22:51.974Z,10.63
2018-11-25T03:25:20.461Z,11.57
2018-11-25T03:27:48.622Z,11.83
2018-11-25T03:30:17.971Z,10.50
2018-11-25T03:32:46.490Z,10.43
2018-11-25T03:35:14.908Z,10.13
2018-11-25T03:37:43.107Z,10.27
2018-11-25T03:40:11.669Z,9.23
2018-11-25T03:42:39.732Z,9.93
2018-11-25T03:45:11.164Z,9.80
2018-11-25T03:47:39.186Z,10.60
2018-11-25T03:50:07.808Z,9.80
2018-11-25T03:52:39.308Z,9.90
2018-11-25T03:55:08.977Z,10.80
2018-11-25T03:57:37.012Z,10.83
2018-11-25T04:00:06.995Z,10.60
2018-11-25T04:02:35.996Z,10.77
2018-11-25T04:05:05.016Z,10.83
2018-11-25T04:07:32.999Z,11.57
2018-11-25T04:10:01.553Z,10.60
2018-11-25T04:12:35.777Z,11.27
2018-11-25T04:15:04.015Z,12.10
2018-11-25T04:17:32.082Z,10.80
2018-11-25T04:20:00.118Z,10.40
2018-11-25T04:22:28.183Z,10.57
2018-11-25T04:24:56.588Z,10.30
2018-11-25T04:27:25.357Z,10.40
2018-11-25T04:29:53.733Z,10.70
2018-11-25T04:32:21.945Z,11.40
2018-11-25T04:34:49.960Z,11.90
2018-11-25T04:37:17.963Z,11.03
2018-11-25T04:39:46.485Z,11.00
2018-11-25T04:42:14.576Z,11.27
2018-11-25T04:44:43.251Z,11.17
2018-11-25T04:47:11.495Z,11.00
2018-11-25T04:49:39.592Z,11.23
2018-11-25T04:52:07.965Z,11.53
2018-11-25T04:54:36.944Z,11.40
2018-11-25T04:57:05.008Z,11.97
2018-11-25T04:59:33.912Z,13.20
2018-11-25T05:02:02.332Z,13.20
2018-11-25T05:04:30.975Z,13.30
2018-11-25T05:06:59.560Z,12.57
2018-11-25T05:09:28.764Z,11.50
2018-11-25T05:11:57.400Z,12.00
2018-11-25T05:14:25.417Z,12.30
2018-11-25T05:16:53.538Z,11.63
2018-11-25T05:19:21.631Z,11.53
2018-11-25T05:21:49.656Z,12.17
2018-11-25T05:24:20.014Z,11.00
2018-11-25T05:26:48.015Z,11.60
2018-11-25T05:29:16.064Z,12.43
2018-11-25T05:31:44.119Z,11.93
2018-11-25T05:34:12.111Z,11.23
2018-11-25T05:36:40.105Z,10.80
2018-11-25T05:39:08.563Z,11.40
2018-11-25T05:41:37.053Z,10.17
2018-11-25T05:44:05.487Z,10.57
2018-11-25T05:46:33.485Z,11.40
2018-11-25T05:49:01.840Z,11.27
2018-11-25T05:51:30.228Z,11.30
2018-11-25T05:53:58.603Z,12.20
2018-11-25T05:56:26.772Z,11.27
2018-11-25T05:58:54.792Z,11.00
2018-11-25T06:01:24.127Z,10.17
2018-11-25T06:03:53.458Z,10.57
2018-11-25T06:06:22.054Z,11.53
2018-11-25T06:08:50.884Z,11.47
2018-11-25T06:11:19.154Z,9.07
2018-11-25T06:13:47.712Z,9.87
2018-11-25T06:16:15.977Z,9.70
2018-11-25T06:18:44.908Z,9.63
2018-11-25T06:21:13.208Z,10.07
2018-11-25T06:23:41.531Z,12.47
2018-11-25T06:26:09.636Z,11.20
2018-11-25T06:28:37.679Z,9.67
2018-11-25T06:31:05.684Z,10.23
2018-11-25T06:33:33.836Z,10.00
2018-11-25T06:36:01.917Z,9.93
2018-11-25T06:38:29.918Z,11.03
2018-11-25T06:40:58.040Z,10.50
2018-11-25T06:43:26.412Z,11.10
2018-11-25T06:45:54.559Z,11.10
2018-11-25T06:48:23.049Z,11.03
2018-11-25T06:50:51.333Z,10.63
2018-11-25T06:53:20.605Z,10.77
2018-11-25T06:55:49.887Z,11.17
2018-11-25T06:58:19.178Z,11.33
2018-11-25T07:00:47.855Z,11.60
2018-11-25T07:03:16.076Z,11.33
2018-11-25T07:05:44.473Z,12.07
2018-11-25T07:08:12.923Z,11.57
2018-11-25T07:10:41.882Z,11.57
2018-11-25T07:13:10.132Z,12.67
2018-11-25T07:15:38.231Z,12.10
2018-11-25T07:18:06.759Z,11.63
2018-11-25T07:20:34.997Z,11.20
2018-11-25T07:23:03.277Z,12.53
2018-11-25T07:25:31.528Z,11.73
2018-11-25T07:27:59.608Z,12.57
2018-11-25T07:30:28.259Z,12.27
2018-11-25T07:32:57.152Z,11.47
2018-11-25T07:35:26.501Z,12.27
2018-11-25T07:37:56.546Z,12.70
2018-11-25T07:40:24.922Z,12.90
2018-11-25T07:42:52.963Z,14.93
2018-11-25T07:45:21.464Z,14.83
2018-11-25T07:47:50.251Z,14.57
2018-11-25T07:50:18.357Z,13.57
2018-11-25T07:52:47.873Z,13.67
2018-11-25T07:55:17.304Z,13.03
2018-11-25T07:57:47.080Z,12.23
2018-11-25T08:00:16.441Z,12.93
2018-11-25T08:02:44.856Z,13.10
2018-11-25T08:05:14.470Z,12.73
2018-11-25T08:07:42.474Z,15.07
2018-11-25T08:10:11.263Z,13.87
2018-11-25T08:12:39.592Z,13.63
2018-11-25T08:15:09.312Z,12.90
2018-11-25T08:17:37.664Z,13.87
2018-11-25T08:20:06.669Z,13.83
2018-11-25T08:22:34.832Z,14.17
2018-11-25T08:25:02.835Z,13.97
2018-11-25T08:27:30.848Z,13.93
2018-11-25T08:29:58.866Z,14.80
2018-11-25T08:32:27.191Z,14.00
2018-11-25T08:34:55.180Z,14.03
2018-11-25T08:37:23.181Z,14.33
2018-11-25T08:39:51.202Z,14.90
2018-11-25T08:42:19.315Z,14.17
2018-11-25T08:44:47.368Z,15.10
2018-11-25T08:47:15.475Z,14.07
2018-11-25T08:49:43.547Z,24.80
2018-11-25T08:52:11.618Z,16.50
2018-11-25T08:54:39.860Z,15.40
2018-11-25T08:57:09.249Z,18.40
2018-11-25T08:59:37.324Z,14.93
2018-11-25T09:02:05.835Z,14.83
2018-11-25T09:04:33.842Z,17.27
2018-11-25T09:07:01.855Z,16.57
2018-11-25T09:09:30.606Z,15.90
2018-11-25T09:11:58.825Z,14.73
2018-11-25T09:14:27.592Z,14.17
2018-11-25T09:16:55.645Z,15.03
2018-11-25T09:19:23.630Z,15.07
2018-11-25T09:21:51.753Z,15.23
2018-11-25T09:24:19.781Z,16.13
2018-11-25T09:26:48.153Z,16.67
2018-11-25T09:29:39.688Z,17.63
2018-11-25T09:32:08.276Z,17.00
2018-11-25T09:34:36.736Z,16.73
2018-11-25T09:37:05.194Z,15.37
2018-11-25T09:39:34.177Z,15.47
2018-11-25T09:42:02.891Z,15.80
2018-11-25T09:44:31.498Z,15.17
2018-11-25T09:46:59.813Z,14.47
2018-11-25T09:49:28.129Z,14.00
2018-11-25T09:51:56.731Z,14.57
2018-11-25T09:54:25.549Z,14.40
2018-11-25T09:56:54.379Z,14.47
2018-11-25T09:59:23.235Z,15.03
2018-11-25T10:01:51.815Z,14.67
2018-11-25T10:04:20.312Z,15.03
2018-11-25T10:06:48.660Z,14.53
2018-11-25T10:09:17.230Z,13.50
2018-11-25T10:11:46.169Z,13.90
2018-11-25T10:14:14.830Z,13.87
2018-11-25T10:16:43.702Z,14.60
2018-11-25T10:19:12.950Z,15.33
2018-11-25T10:21:41.920Z,15.20
2018-11-25T10:24:11.184Z,15.23
2018-11-25T10:26:39.185Z,13.83
2018-11-25T10:29:07.215Z,12.97
2018-11-25T10:31:35.315Z,13.60
2018-11-25T10:34:03.451Z,13.30
2018-11-25T10:36:31.544Z,13.63
2018-11-25T10:38:59.665Z,12.90
2018-11-25T10:41:27.793Z,13.37
2018-11-25T10:43:55.965Z,13.87
2018-11-25T10:46:23.973Z,14.70
2018-11-25T10:48:52.346Z,13.77
2018-11-25T10:51:20.439Z,13.00
2018-11-25T10:53:48.688Z,14.83
2018-11-25T10:56:16.928Z,14.57
2018-11-25T10:58:44.982Z,14.90
2018-11-25T11:01:18.461Z,14.83
2018-11-25T11:03:52.013Z,13.40
2018-11-25T11:06:25.916Z,15.10
2018-11-25T11:08:53.906Z,15.63
2018-11-25T11:11:22.158Z,15.53
2018-11-25T11:13:50.202Z,13.37
2018-11-25T11:16:18.214Z,14.87
2018-11-25T11:18:46.423Z,12.87
2018-11-25T11:21:14.485Z,14.17
2018-11-25T11:23:42.530Z,13.73
2018-11-25T11:26:16.714Z,14.20
2018-11-25T11:28:44.774Z,14.43
2018-11-25T11:31:13.441Z,14.80
2018-11-25T11:33:44.090Z,14.37
2018-11-25T11:36:13.844Z,14.53
2018-11-25T11:38:42.304Z,15.60
2018-11-25T11:41:10.423Z,15.23
2018-11-25T11:43:38.471Z,14.13
2018-11-25T11:46:06.540Z,14.80
2018-11-25T11:48:34.567Z,14.43
2018-11-25T11:51:03.839Z,13.47
2018-11-25T11:53:31.861Z,12.93
2018-11-25T11:56:00.300Z,12.17
2018-11-25T11:58:28.392Z,10.90
2018-11-25T12:00:56.431Z,10.40
2018-11-25T12:03:26.479Z,10.77
2018-11-25T12:05:52.534Z,11.20
2018-11-25T12:08:20.704Z,10.10
2018-11-25T12:10:48.851Z,10.03
2018-11-25T12:13:16.880Z,10.00
2018-11-25T12:15:45.230Z,10.30
2018-11-25T12:18:13.416Z,9.90
2018-11-25T12:20:41.632Z,10.40
2018-11-25T12:23:09.846Z,10.37
2018-11-25T12:25:38.062Z,9.50
2018-11-25T12:28:07.402Z,9.17
2018-11-25T12:30:35.680Z,9.30
2018-11-25T12:33:04.003Z,10.20
2018-11-25T12:35:32.314Z,10.47
2018-11-25T12:38:00.480Z,11.10
2018-11-25T12:40:28.820Z,11.27
2018-11-25T12:42:57.703Z,12.10
2018-11-25T12:45:25.984Z,13.03
2018-11-25T12:47:54.280Z,10.57
2018-11-25T12:50:24.160Z,11.50
2018-11-25T12:52:52.540Z,11.70
2018-11-25T12:55:21.339Z,11.23
2018-11-25T12:57:49.573Z,11.13
2018-11-25T13:00:25.254Z,11.20
2018-11-25T13:02:53.471Z,10.77
2018-11-25T13:05:21.683Z,11.47
2018-11-25T13:07:49.892Z,12.67
2018-11-25T13:10:18.075Z,13.23
2018-11-25T13:12:46.452Z,12.03
2018-11-25T13:15:14.868Z,12.53
2018-11-25T13:17:43.203Z,11.80
2018-11-25T13:20:12.109Z,11.90
2018-11-25T13:22:40.756Z,12.50
2018-11-25T13:25:09.725Z,13.40
2018-11-25T13:27:38.068Z,12.83
2018-11-25T13:30:10.599Z,11.23
2018-11-25T13:32:38.943Z,11.27
2018-11-25T13:35:07.983Z,10.77
2018-11-25T13:37:37.561Z,10.97
2018-11-25T13:40:07.252Z,10.93
2018-11-25T13:42:35.472Z,12.20
2018-11-25T13:45:03.301Z,11.57
2018-11-25T13:47:31.669Z,12.73
2018-11-25T13:49:59.963Z,11.90
2018-11-25T13:52:28.304Z,12.20
2018-11-25T13:54:56.571Z,11.13
2018-11-25T13:57:24.811Z,11.40
2018-11-25T13:59:53.387Z,11.33
2018-11-25T14:02:21.576Z,11.53
2018-11-25T14:04:49.842Z,12.50
2018-11-25T14:07:18.824Z,12.40
2018-11-25T14:09:47.064Z,12.47
2018-11-25T14:12:15.275Z,12.60
2018-11-25T14:14:43.489Z,11.97
2018-11-25T14:17:11.841Z,14.77
2018-11-25T14:19:40.156Z,13.83
2018-11-25T14:22:08.388Z,12.87
2018-11-25T14:24:37.471Z,13.40
2018-11-25T14:27:08.433Z,13.93
2018-11-25T14:29:36.632Z,13.13
2018-11-25T14:32:05.120Z,13.10
2018-11-25T14:34:33.362Z,11.93
2018-11-25T14:37:01.886Z,13.03
2018-11-25T14:39:30.129Z,13.70
2018-11-25T14:41:58.404Z,13.70
2018-11-25T14:44:26.656Z,13.07
2018-11-25T14:46:55.233Z,13.83
2018-11-25T14:49:23.863Z,14.20
2018-11-25T14:51:52.099Z,13.73
2018-11-25T14:54:20.611Z,13.63
2018-11-25T14:56:48.895Z,13.17
2018-11-25T14:59:17.140Z,13.97
2018-11-25T15:01:45.631Z,13.83
2018-11-25T15:04:13.817Z,14.63
2018-11-25T15:06:42.134Z,14.23
2018-11-25T15:09:10.921Z,20.00
2018-11-25T15:11:39.281Z,24.85
2018-11-25T15:14:07.932Z,24.17
2018-11-25T15:16:36.472Z,26.30
2018-11-25T15:19:05.463Z,29.33
2018-11-25T15:21:33.685Z,55.33
2018-11-25T15:24:02.482Z,17.83
2018-11-25T15:26:31.002Z,17.37
2018-11-25T15:28:59.224Z,15.87
2018-11-25T15:31:28.775Z,17.87
2018-11-25T15:33:57.252Z,17.47
2018-11-25T15:36:30.893Z,17.87
2018-11-25T15:38:59.015Z,18.20
2018-11-25T15:41:27.037Z,15.50
2018-11-25T15:43:55.285Z,14.80
2018-11-25T15:46:23.345Z,14.67
2018-11-25T15:48:51.441Z,15.40
2018-11-25T15:51:19.502Z,16.07
2018-11-25T15:53:47.590Z,15.67
2018-11-25T15:56:15.580Z,17.07
2018-11-25T15:58:43.591Z,15.77
2018-11-25T16:01:11.663Z,15.77
2018-11-25T16:03:39.640Z,15.73
2018-11-25T16:06:13.518Z,15.17
2018-11-25T16:08:41.795Z,15.63
2018-11-25T16:11:10.873Z,15.27
2018-11-25T16:13:38.924Z,15.50
2018-11-25T16:16:06.956Z,16.63
2018-11-25T16:18:35.071Z,15.97
2018-11-25T16:21:03.136Z,14.37
2018-11-25T16:23:31.252Z,14.50
2018-11-25T16:26:00.601Z,15.80
2018-11-25T16:28:31.654Z,21.13
2018-11-25T16:30:59.646Z,18.37
2018-11-25T16:33:28.259Z,19.13
2018-11-25T16:35:56.266Z,16.50
2018-11-25T16:38:25.267Z,16.73
2018-11-25T16:40:53.282Z,17.37
2018-11-25T16:43:21.296Z,18.00
2018-11-25T16:45:49.380Z,17.73
2018-11-25T16:48:17.352Z,17.93
2018-11-25T16:50:45.368Z,17.60
2018-11-25T16:53:13.347Z,17.73
2018-11-25T16:55:41.369Z,18.83
2018-11-25T16:58:09.360Z,18.30
2018-11-25T17:00:37.363Z,17.60
2018-11-25T17:03:05.757Z,18.43
2018-11-25T17:05:34.679Z,17.93
2018-11-25T17:08:03.810Z,17.53
2018-11-25T17:10:31.887Z,17.83
2018-11-25T17:12:59.912Z,17.03
2018-11-25T17:15:28.235Z,16.10
2018-11-25T17:17:56.263Z,16.77
2018-11-25T17:20:24.270Z,17.17
2018-11-25T17:22:52.388Z,17.80
2018-11-25T17:25:20.371Z,18.83
2018-11-25T17:27:48.358Z,19.43
2018-11-25T17:30:23.056Z,18.90
2018-11-25T17:32:56.965Z,18.37
2018-11-25T17:35:33.385Z,22.00
2018-11-25T17:38:13.723Z,24.23
2018-11-25T17:40:41.804Z,22.63
2018-11-25T17:43:17.372Z,23.13
2018-11-25T17:45:45.462Z,17.13
2018-11-25T17:48:17.785Z,16.50
2018-11-25T17:50:46.129Z,16.63
2018-11-25T17:53:20.702Z,15.77
2018-11-25T17:55:43.392Z,16.80
2018-11-25T17:58:11.463Z,17.10
2018-11-25T18:00:44.303Z,17.60
2018-11-25T18:03:19.035Z,27.10
2018-11-25T18:05:49.129Z,22.93
2018-11-25T18:08:17.400Z,25.87
2018-11-25T18:10:45.434Z,20.87
2018-11-25T18:13:13.544Z,18.43
2018-11-25T18:15:41.649Z,17.80
2018-11-25T18:18:12.530Z,18.43
2018-11-25T18:20:43.596Z,17.67
2018-11-25T18:23:11.689Z,16.83
2018-11-25T18:25:39.711Z,17.80
2018-11-25T18:28:07.720Z,17.03
2018-11-25T18:30:38.631Z,18.73
2018-11-25T18:33:06.764Z,19.33
2018-11-25T18:35:34.938Z,17.73
2018-11-25T18:38:02.952Z,16.17
2018-11-25T18:40:30.981Z,16.53
2018-11-25T18:42:59.050Z,15.73
2018-11-25T18:45:27.090Z,15.17
2018-11-25T18:47:55.182Z,13.70
2018-11-25T18:50:23.342Z,13.47
2018-11-25T18:52:52.056Z,13.50
2018-11-25T18:55:19.664Z,14.77
2018-11-25T18:57:47.769Z,15.03
2018-11-25T19:01:19.039Z,14.87
2018-11-25T19:03:48.448Z,13.50
2018-11-25T19:06:16.871Z,14.00
2018-11-25T19:08:48.590Z,13.57
2018-11-25T19:11:23.122Z,14.23
2018-11-25T19:13:52.869Z,13.10
2018-11-25T19:16:28.936Z,12.58
2018-11-25T19:19:06.007Z,11.40
2018-11-25T19:21:44.492Z,9.90
2018-11-25T19:24:16.849Z,10.47
2018-11-25T19:26:45.171Z,13.15
2018-11-25T19:29:13.975Z,12.60
2018-11-25T19:31:42.309Z,14.60
2018-11-25T19:34:10.431Z,11.90
2018-11-25T19:36:38.573Z,10.17
2018-11-25T19:39:08.169Z,10.77
2018-11-25T19:41:36.183Z,12.23
2018-11-25T19:44:04.761Z,12.53
2018-11-25T19:46:32.888Z,13.53
2018-11-25T19:49:00.990Z,13.53
2018-11-25T19:51:29.133Z,13.20
2018-11-25T19:53:57.152Z,13.27
2018-11-25T19:56:25.253Z,14.20
2018-11-25T19:58:57.602Z,15.93
2018-11-25T20:01:25.663Z,13.73
2018-11-25T20:03:53.866Z,13.60
2018-11-25T20:06:21.903Z,13.90
2018-11-25T20:08:49.971Z,16.00
2018-11-25T20:11:17.962Z,15.87
2018-11-25T20:13:46.036Z,16.10
2018-11-25T20:16:19.661Z,15.45
2018-11-25T20:18:47.675Z,16.70
2018-11-25T20:21:21.245Z,17.60
2018-11-25T20:23:49.375Z,15.93
2018-11-25T20:26:31.440Z,21.60
2018-11-25T20:34:33.311Z,16.57
2018-11-25T20:37:01.607Z,15.90
2018-11-25T20:50:35.704Z,19.73
2018-11-25T20:58:37.629Z,13.20
2018-11-25T21:09:25.029Z,14.30
2018-11-25T21:47:56.012Z,14.27
2018-11-25T21:50:25.195Z,14.53
2018-11-25T21:52:53.206Z,14.63
2018-11-25T21:55:21.298Z,14.37
2018-11-25T21:57:49.614Z,14.00
2018-11-25T22:00:19.011Z,14.53
2018-11-25T22:02:47.131Z,13.40
2018-11-25T22:05:15.507Z,14.43
2018-11-25T22:07:43.559Z,15.23
2018-11-25T22:10:12.089Z,14.40
2018-11-25T22:12:40.589Z,15.00
2018-11-25T22:15:10.057Z,15.60
2018-11-25T22:17:38.060Z,16.03
2018-11-25T22:20:07.050Z,15.70
2018-11-25T22:22:35.088Z,16.43
2018-11-25T22:25:03.193Z,16.03
2018-11-25T22:27:31.268Z,16.70
2018-11-25T22:29:59.424Z,17.60
2018-11-25T22:32:27.703Z,18.40
2018-11-25T22:34:56.124Z,19.50
2018-11-25T22:37:24.124Z,19.53
2018-11-25T22:39:52.138Z,19.17
2018-11-25T22:42:20.267Z,20.03
2018-11-25T22:44:48.246Z,19.03
2018-11-25T22:47:16.281Z,19.77
2018-11-25T22:49:44.330Z,18.60
2018-11-25T22:52:12.590Z,20.43
2018-11-25T22:54:40.614Z,20.43
2018-11-25T22:57:08.810Z,19.87
2018-11-25T22:59:36.813Z,20.20
2018-11-25T23:02:05.474Z,19.67
2018-11-25T23:04:39.174Z,19.53
2018-11-25T23:07:07.286Z,19.23
2018-11-25T23:09:35.286Z,20.63
2018-11-25T23:12:03.527Z,19.10
2018-11-25T23:14:31.538Z,20.17
2018-11-25T23:16:59.570Z,20.77
2018-11-25T23:19:27.600Z,19.27
2018-11-25T23:21:55.706Z,19.90
2018-11-25T23:24:23.711Z,19.80
2018-11-25T23:26:51.958Z,19.60
2018-11-25T23:29:19.953Z,20.27
2018-11-25T23:31:47.953Z,20.70
2018-11-25T23:34:15.971Z,20.93
2018-11-25T23:36:44.268Z,19.37
2018-11-25T23:39:15.897Z,19.77
2018-11-25T23:41:43.992Z,20.13
2018-11-25T23:44:12.043Z,20.50
2018-11-25T23:46:40.083Z,19.73
2018-11-25T23:49:16.640Z,19.60
2018-11-25T23:51:44.661Z,20.60
2018-11-25T23:54:12.686Z,19.80
2018-11-25T23:56:40.728Z,18.30
2018-11-25T23:59:08.732Z,20.30
